Time;durP1;ratioP1;P1;durP2;ratioP2;P2;SDS_P1;SDS_P2;PMS_P1;PMS_P2;Temp;Humidity;BMP_temperature;BMP_pressure;BME280_temperature;BME280_humidity;BME280_pressure;Samples;Min_cycle;Max_cycle;Signal;HPM_P1;HPM_P2
2024/05/02 00:01:42;;;;;;;10.20;9.03;;;16.50;77.20;;;;;;1826723;76;25955;-60
2024/05/02 00:04:10;;;;;;;12.60;8.70;;;16.50;78.00;;;;;;1824029;76;26029;-60
2024/05/02 00:06:37;;;;;;;10.50;7.93;;;16.60;76.90;;;;;;1826042;76;25994;-60
2024/05/02 00:09:05;;;;;;;11.33;8.50;;;16.70;76.00;;;;;;1830936;76;26533;-59
2024/05/02 00:11:32;;;;;;;12.00;8.40;;;16.80;74.80;;;;;;1829521;76;25990;-59
2024/05/02 00:14:00;;;;;;;8.73;7.47;;;16.80;74.20;;;;;;1825759;76;26005;-59
2024/05/02 00:16:27;;;;;;;10.77;8.63;;;16.70;73.40;;;;;;1832644;76;26276;-59
2024/05/02 00:18:55;;;;;;;12.60;8.30;;;16.60;73.20;;;;;;1833883;76;26579;-58
2024/05/02 00:21:22;;;;;;;11.90;8.40;;;16.60;73.60;;;;;;1821359;76;25981;-60
2024/05/02 00:23:50;;;;;;;12.70;8.33;;;16.50;74.40;;;;;;1823305;76;26068;-61
2024/05/02 00:26:17;;;;;;;10.97;8.43;;;16.50;74.90;;;;;;1829583;76;26812;-61
2024/05/02 00:28:45;;;;;;;11.00;8.63;;;16.50;76.30;;;;;;1828875;76;25987;-60
2024/05/02 00:31:21;;;;;;;10.80;7.90;;;16.60;75.60;;;;;;1822701;76;25954;-61
2024/05/02 00:33:48;;;;;;;12.83;9.00;;;16.60;75.30;;;;;;1817550;76;26174;-60
2024/05/02 00:36:16;;;;;;;13.10;8.87;;;16.40;74.90;;;;;;1827825;76;25954;-58
2024/05/02 00:38:43;;;;;;;13.37;9.10;;;16.40;74.80;;;;;;1829108;76;25959;-58
2024/05/02 00:41:11;;;;;;;17.67;9.40;;;16.30;76.00;;;;;;1831926;76;27037;-60
2024/05/02 00:43:41;;;;;;;9.80;8.80;;;16.20;76.90;;;;;;1821045;76;26498;-59
2024/05/02 00:46:08;;;;;;;11.03;9.30;;;16.30;76.30;;;;;;1828165;76;26010;-59
2024/05/02 00:48:36;;;;;;;20.30;8.80;;;16.30;75.40;;;;;;1830814;76;26047;-58
2024/05/02 00:51:04;;;;;;;11.07;8.40;;;16.30;75.40;;;;;;1825998;76;26033;-59
2024/05/02 00:53:32;;;;;;;13.83;9.70;;;16.30;75.30;;;;;;1827217;76;25954;-60
2024/05/02 00:56:01;;;;;;;9.77;8.20;;;16.20;75.40;;;;;;1820869;76;26009;-58
2024/05/02 00:58:30;;;;;;;9.83;8.30;;;16.20;75.20;;;;;;1821323;77;25993;-59
2024/05/02 01:00:57;;;;;;;13.83;9.40;;;16.20;75.10;;;;;;1822203;76;25954;-59
2024/05/02 01:03:25;;;;;;;9.40;8.50;;;16.20;74.50;;;;;;1826828;76;26095;-59
2024/05/02 01:05:53;;;;;;;10.33;8.73;;;16.10;75.10;;;;;;1833060;76;25960;-59
2024/05/02 01:08:20;;;;;;;11.83;9.00;;;16.20;74.80;;;;;;1833300;76;26481;-60
2024/05/02 01:10:49;;;;;;;11.53;8.27;;;16.00;75.10;;;;;;1823728;76;26021;-59
2024/05/02 01:13:16;;;;;;;10.13;8.87;;;16.00;75.10;;;;;;1817880;76;25930;-59
2024/05/02 01:15:44;;;;;;;10.20;9.10;;;15.90;74.90;;;;;;1820801;76;26470;-59
2024/05/02 01:18:11;;;;;;;12.93;8.73;;;15.90;75.80;;;;;;1823062;76;26070;-59
2024/05/02 01:20:39;;;;;;;13.10;10.37;;;15.90;77.10;;;;;;1832874;76;25982;-59
2024/05/02 01:23:06;;;;;;;13.80;9.07;;;15.90;77.60;;;;;;1822701;76;25926;-59
2024/05/02 01:25:34;;;;;;;9.80;8.17;;;16.00;78.00;;;;;;1829969;76;26477;-59
2024/05/02 01:28:03;;;;;;;10.03;8.80;;;15.90;78.70;;;;;;1825103;76;25910;-59
2024/05/02 01:30:30;;;;;;;8.90;8.00;;;15.90;77.60;;;;;;1821039;76;26000;-60
2024/05/02 01:32:58;;;;;;;10.17;9.23;;;15.80;77.50;;;;;;1831354;76;25961;-59
2024/05/02 01:35:27;;;;;;;9.90;8.20;;;15.80;77.30;;;;;;1826158;76;25957;-59
2024/05/02 01:37:55;;;;;;;10.13;8.93;;;15.70;78.80;;;;;;1832913;76;25984;-59
2024/05/02 01:40:22;;;;;;;9.20;8.23;;;15.80;77.30;;;;;;1821303;76;26321;-59
2024/05/02 01:42:50;;;;;;;13.37;9.20;;;15.70;77.10;;;;;;1818689;76;25970;-58
2024/05/02 01:45:17;;;;;;;10.00;8.97;;;15.70;78.00;;;;;;1820354;76;26049;-62
2024/05/02 01:47:45;;;;;;;11.70;8.60;;;15.70;77.80;;;;;;1825601;76;26020;-60
2024/05/02 01:50:12;;;;;;;11.03;9.20;;;15.70;77.50;;;;;;1829391;76;25228;-59
2024/05/02 01:52:40;;;;;;;12.30;9.20;;;15.70;77.10;;;;;;1820367;76;25966;-59
2024/05/02 01:55:07;;;;;;;16.20;8.90;;;15.60;77.50;;;;;;1819275;76;26017;-59
2024/05/02 01:57:35;;;;;;;12.50;9.30;;;15.60;77.50;;;;;;1814944;76;25981;-60
2024/05/02 02:00:03;;;;;;;9.10;8.17;;;15.60;78.50;;;;;;1828577;76;26013;-59
2024/05/02 02:02:31;;;;;;;11.53;8.97;;;15.60;79.80;;;;;;1827582;76;26052;-59
2024/05/02 02:04:59;;;;;;;9.67;8.77;;;15.50;79.70;;;;;;1829397;76;25566;-60
2024/05/02 02:07:26;;;;;;;10.57;9.50;;;15.50;80.00;;;;;;1823070;76;26075;-60
2024/05/02 02:09:54;;;;;;;10.13;8.30;;;15.30;81.40;;;;;;1814493;76;26052;-59
2024/05/02 02:12:21;;;;;;;10.30;8.13;;;15.30;82.10;;;;;;1834125;76;26334;-58
2024/05/02 02:14:49;;;;;;;12.00;8.63;;;15.30;81.30;;;;;;1827178;77;26064;-59
2024/05/02 02:17:17;;;;;;;11.27;8.87;;;15.40;80.90;;;;;;1828559;76;25989;-59
2024/05/02 02:19:44;;;;;;;11.50;8.87;;;15.40;79.20;;;;;;1833802;76;26466;-60
2024/05/02 02:22:12;;;;;;;11.80;9.07;;;15.40;78.90;;;;;;1830296;76;25988;-59
2024/05/02 02:24:39;;;;;;;14.27;9.20;;;15.40;79.00;;;;;;1832751;76;26030;-58
2024/05/02 02:27:07;;;;;;;10.23;7.93;;;15.40;78.50;;;;;;1820184;76;25935;-60
2024/05/02 02:29:34;;;;;;;9.03;8.13;;;15.30;79.00;;;;;;1826921;76;25958;-58
2024/05/02 02:32:02;;;;;;;13.67;9.00;;;15.30;79.10;;;;;;1822732;76;26487;-59
2024/05/02 02:34:29;;;;;;;10.30;9.30;;;15.30;77.90;;;;;;1818897;76;26102;-60
2024/05/02 02:36:57;;;;;;;10.57;8.20;;;15.10;78.40;;;;;;1827146;76;26042;-60
2024/05/02 02:39:24;;;;;;;9.17;7.33;;;15.10;79.00;;;;;;1829110;76;25994;-59
2024/05/02 02:41:52;;;;;;;10.80;7.93;;;15.00;78.90;;;;;;1829284;76;25965;-59
2024/05/02 02:44:19;;;;;;;11.20;9.30;;;15.00;79.40;;;;;;1830277;76;26890;-60
2024/05/02 02:46:47;;;;;;;12.07;8.07;;;15.10;79.40;;;;;;1826257;76;26006;-58
2024/05/02 02:49:14;;;;;;;14.23;8.57;;;15.10;79.90;;;;;;1826022;76;25965;-59
2024/05/02 02:51:42;;;;;;;10.70;9.60;;;15.10;79.10;;;;;;1819210;76;25978;-57
2024/05/02 02:54:09;;;;;;;12.07;8.40;;;15.10;79.60;;;;;;1826416;76;26295;-58
2024/05/02 02:56:37;;;;;;;17.33;8.93;;;15.10;78.80;;;;;;1833279;76;26362;-60
2024/05/02 02:59:04;;;;;;;8.80;7.90;;;15.00;78.50;;;;;;1818034;76;26044;-60
2024/05/02 03:01:43;;;;;;;12.43;9.60;;;15.00;79.60;;;;;;1832231;76;25913;-59
2024/05/02 03:04:15;;;;;;;10.23;8.50;;;15.10;79.80;;;;;;1832241;76;26536;-60
2024/05/02 03:06:43;;;;;;;9.17;7.97;;;15.10;78.30;;;;;;1833149;76;26669;-60
2024/05/02 03:09:11;;;;;;;9.47;8.27;;;14.90;77.30;;;;;;1825793;76;26844;-60
2024/05/02 03:11:39;;;;;;;11.30;9.90;;;14.80;78.10;;;;;;1828335;76;26064;-59
2024/05/02 03:14:07;;;;;;;9.87;7.93;;;14.60;79.50;;;;;;1826957;76;26029;-59
2024/05/02 03:16:35;;;;;;;8.57;7.77;;;14.60;80.10;;;;;;1830598;76;26024;-61
2024/05/02 03:19:03;;;;;;;9.80;8.90;;;14.60;80.00;;;;;;1827632;76;25965;-58
2024/05/02 03:21:30;;;;;;;11.70;9.00;;;14.60;81.30;;;;;;1824248;76;25985;-59
2024/05/02 03:23:58;;;;;;;10.13;9.13;;;14.70;80.80;;;;;;1815383;76;26527;-58
2024/05/02 03:26:25;;;;;;;12.50;9.73;;;14.70;81.00;;;;;;1826188;76;25981;-60
2024/05/02 03:28:53;;;;;;;11.07;8.83;;;14.70;79.60;;;;;;1826046;76;25943;-60
2024/05/02 03:31:20;;;;;;;9.27;8.37;;;14.70;80.00;;;;;;1822030;76;25994;-58
2024/05/02 03:33:48;;;;;;;14.33;8.90;;;14.70;79.10;;;;;;1826158;76;27181;-59
2024/05/02 03:36:15;;;;;;;8.87;7.60;;;14.70;79.20;;;;;;1827271;76;25981;-59
2024/05/02 03:38:43;;;;;;;11.00;8.47;;;14.70;80.40;;;;;;1826791;76;26014;-58
2024/05/02 03:41:11;;;;;;;10.27;8.47;;;14.70;81.70;;;;;;1832651;76;26069;-58
2024/05/02 03:43:42;;;;;;;8.73;7.90;;;14.70;80.70;;;;;;1833002;76;26058;-58
2024/05/02 03:46:14;;;;;;;9.50;8.53;;;14.70;79.30;;;;;;1827784;76;25990;-58
2024/05/02 03:48:39;;;;;;;12.23;8.57;;;14.60;78.60;;;;;;1826027;76;26015;-57
2024/05/02 03:51:07;;;;;;;9.53;8.63;;;14.50;78.80;;;;;;1830230;76;26726;-59
2024/05/02 03:53:34;;;;;;;8.77;7.90;;;14.40;79.50;;;;;;1833418;76;25926;-58
2024/05/02 03:56:02;;;;;;;11.50;8.43;;;14.40;80.10;;;;;;1822703;76;25961;-58
2024/05/02 03:58:29;;;;;;;14.23;8.50;;;14.50;80.20;;;;;;1830574;76;26699;-58
2024/05/02 04:00:57;;;;;;;9.83;8.33;;;14.50;80.50;;;;;;1827723;76;26037;-58
2024/05/02 04:03:24;;;;;;;9.40;8.40;;;14.60;79.60;;;;;;1828859;76;26024;-58
2024/05/02 04:05:52;;;;;;;12.00;8.80;;;14.60;79.80;;;;;;1831536;76;25955;-59
2024/05/02 04:08:19;;;;;;;11.30;9.10;;;14.50;82.40;;;;;;1826980;76;26045;-57
2024/05/02 04:10:47;;;;;;;10.20;9.20;;;14.40;83.40;;;;;;1826156;76;26018;-58
2024/05/02 04:13:14;;;;;;;10.07;9.07;;;14.40;82.80;;;;;;1833143;76;26341;-59
2024/05/02 04:15:42;;;;;;;10.00;8.33;;;14.50;82.00;;;;;;1837759;76;25970;-58
2024/05/02 04:18:12;;;;;;;12.57;9.37;;;14.50;81.80;;;;;;1823455;76;27624;-59
2024/05/02 04:20:43;;;;;;;9.33;8.43;;;14.40;83.30;;;;;;1825348;76;26081;-58
2024/05/02 04:23:12;;;;;;;9.53;8.53;;;14.50;83.60;;;;;;1831122;76;26044;-58
2024/05/02 04:25:39;;;;;;;11.07;8.03;;;14.50;82.60;;;;;;1825769;76;25983;-59
2024/05/02 04:28:07;;;;;;;9.00;8.10;;;14.50;82.20;;;;;;1823490;76;26982;-60
2024/05/02 04:30:35;;;;;;;8.97;8.10;;;14.60;80.40;;;;;;1830104;76;25897;-58
2024/05/02 04:33:03;;;;;;;10.03;9.03;;;14.60;79.40;;;;;;1825563;76;26009;-58
2024/05/02 04:35:30;;;;;;;10.40;9.50;;;14.50;80.20;;;;;;1832148;76;26032;-58
2024/05/02 04:37:58;;;;;;;11.57;9.77;;;14.50;80.90;;;;;;1833033;76;26050;-58
2024/05/02 04:40:25;;;;;;;12.13;8.90;;;14.50;81.00;;;;;;1833769;76;25945;-59
2024/05/02 04:42:53;;;;;;;12.93;10.10;;;14.60;81.30;;;;;;1827961;76;25995;-57
2024/05/02 04:45:22;;;;;;;11.20;10.17;;;14.70;81.90;;;;;;1835029;76;26498;-58
2024/05/02 04:47:49;;;;;;;10.53;8.60;;;14.90;83.30;;;;;;1828530;76;26072;-60
2024/05/02 04:50:17;;;;;;;13.43;8.70;;;15.20;82.70;;;;;;1831584;76;26435;-59
2024/05/02 04:52:44;;;;;;;11.87;10.10;;;15.50;81.70;;;;;;1833180;76;26021;-58
2024/05/02 04:55:12;;;;;;;10.93;9.30;;;15.70;79.20;;;;;;1826088;78;25919;-58
2024/05/02 04:57:39;;;;;;;13.53;9.70;;;16.40;75.90;;;;;;1826042;76;25998;-59
2024/05/02 05:00:07;;;;;;;16.20;8.90;;;16.40;74.50;;;;;;1828733;76;26026;-59
2024/05/02 05:02:35;;;;;;;9.07;8.17;;;16.30;74.30;;;;;;1832385;76;25936;-60
2024/05/02 05:05:02;;;;;;;8.00;7.17;;;16.40;74.40;;;;;;1833908;76;26854;-59
2024/05/02 05:07:30;;;;;;;8.53;7.70;;;16.70;73.50;;;;;;1833050;76;25941;-58
2024/05/02 05:09:57;;;;;;;9.30;8.20;;;17.00;71.40;;;;;;1826896;76;26652;-60
2024/05/02 05:12:25;;;;;;;10.33;7.90;;;17.10;70.60;;;;;;1824492;76;26114;-60
2024/05/02 05:14:52;;;;;;;8.80;8.00;;;17.20;70.30;;;;;;1835081;76;26029;-58
2024/05/02 05:17:20;;;;;;;10.30;8.67;;;17.40;69.80;;;;;;1832950;76;26411;-59
2024/05/02 05:19:47;;;;;;;12.43;8.57;;;17.60;68.60;;;;;;1826753;76;25979;-60
2024/05/02 05:22:15;;;;;;;9.23;7.87;;;17.50;67.80;;;;;;1823043;76;25939;-60
2024/05/02 05:24:42;;;;;;;8.47;7.57;;;17.40;68.20;;;;;;1830381;76;26029;-59
2024/05/02 05:27:10;;;;;;;9.50;8.60;;;17.60;68.10;;;;;;1829570;76;26462;-60
2024/05/02 05:29:37;;;;;;;9.60;8.70;;;17.50;68.40;;;;;;1827766;76;25938;-59
2024/05/02 05:32:05;;;;;;;9.67;8.67;;;17.70;68.30;;;;;;1822005;76;25950;-59
2024/05/02 05:34:33;;;;;;;11.20;8.07;;;17.60;67.90;;;;;;1831253;76;26481;-60
2024/05/02 05:37:00;;;;;;;10.07;9.00;;;17.70;68.20;;;;;;1821585;76;26057;-59
2024/05/02 05:39:28;;;;;;;10.97;8.60;;;17.90;67.30;;;;;;1831576;76;25946;-59
2024/05/02 05:41:55;;;;;;;7.90;6.73;;;18.00;68.20;;;;;;1834440;76;25890;-58
2024/05/02 05:44:23;;;;;;;9.43;7.40;;;18.00;65.80;;;;;;1829009;76;26124;-60
2024/05/02 05:46:50;;;;;;;8.80;7.90;;;18.00;67.00;;;;;;1827987;76;26545;-58
2024/05/02 05:49:18;;;;;;;8.50;7.50;;;18.10;66.40;;;;;;1831080;76;26046;-60
2024/05/02 05:51:45;;;;;;;9.23;8.30;;;18.30;66.00;;;;;;1814932;76;25954;-59
2024/05/02 05:54:13;;;;;;;8.93;7.90;;;18.50;65.10;;;;;;1824482;76;25993;-58
2024/05/02 05:56:40;;;;;;;9.10;7.70;;;18.60;64.50;;;;;;1824347;76;26460;-59
2024/05/02 05:59:08;;;;;;;10.23;8.00;;;18.80;63.60;;;;;;1832107;76;25981;-59
2024/05/02 06:01:35;;;;;;;10.63;9.13;;;18.90;63.80;;;;;;1820271;76;26011;-59
2024/05/02 06:04:03;;;;;;;9.17;7.33;;;19.00;63.30;;;;;;1832316;76;25971;-60
2024/05/02 06:06:30;;;;;;;10.70;7.63;;;19.20;63.20;;;;;;1833038;76;26464;-61
2024/05/02 06:08:57;;;;;;;8.57;7.77;;;19.30;62.10;;;;;;1826575;76;26012;-61
2024/05/02 06:11:25;;;;;;;8.67;7.87;;;19.10;62.60;;;;;;1825120;76;26035;-61
2024/05/02 06:13:52;;;;;;;7.47;6.53;;;19.10;60.40;;;;;;1824787;76;26788;-61
2024/05/02 06:16:20;;;;;;;10.83;8.13;;;18.70;60.40;;;;;;1829994;76;26065;-61
2024/05/02 06:18:47;;;;;;;9.27;8.17;;;18.60;61.30;;;;;;1826182;76;26580;-61
2024/05/02 06:21:15;;;;;;;10.03;7.37;;;18.20;64.40;;;;;;1828036;76;25993;-60
2024/05/02 06:23:42;;;;;;;11.20;9.10;;;18.10;64.30;;;;;;1826972;76;25965;-61
2024/05/02 06:26:10;;;;;;;8.53;7.73;;;18.20;64.40;;;;;;1829423;76;26028;-61
2024/05/02 06:28:37;;;;;;;10.60;8.50;;;18.30;64.30;;;;;;1831658;76;26305;-61
2024/05/02 06:31:05;;;;;;;8.93;8.00;;;18.10;65.00;;;;;;1830916;76;26060;-61
2024/05/02 06:33:32;;;;;;;9.40;8.50;;;18.30;64.80;;;;;;1829503;76;26017;-61
2024/05/02 06:36:00;;;;;;;10.17;8.90;;;18.60;64.10;;;;;;1826189;76;25957;-61
2024/05/02 06:38:28;;;;;;;9.33;8.30;;;18.80;63.80;;;;;;1830910;76;26001;-61
2024/05/02 06:40:55;;;;;;;9.17;8.10;;;19.20;63.30;;;;;;1833345;76;26175;-60
2024/05/02 06:43:23;;;;;;;9.20;7.73;;;19.60;61.00;;;;;;1829786;76;26444;-61
2024/05/02 06:45:50;;;;;;;8.77;7.70;;;19.80;58.60;;;;;;1833035;76;25991;-61
2024/05/02 06:48:18;;;;;;;9.30;8.13;;;19.90;58.20;;;;;;1823518;76;25930;-61
2024/05/02 06:50:45;;;;;;;8.97;7.47;;;20.10;59.10;;;;;;1828325;76;26376;-62
2024/05/02 06:53:13;;;;;;;9.53;8.13;;;20.30;57.90;;;;;;1831557;76;26077;-60
2024/05/02 06:55:40;;;;;;;10.40;9.60;;;20.10;56.50;;;;;;1826171;76;25958;-61
2024/05/02 06:58:08;;;;;;;13.23;9.87;;;20.10;57.90;;;;;;1826672;76;26469;-61
2024/05/02 07:00:35;;;;;;;11.33;9.17;;;19.70;57.70;;;;;;1830168;76;26016;-61
2024/05/02 07:03:03;;;;;;;10.83;8.30;;;19.80;58.60;;;;;;1833782;76;26075;-60
2024/05/02 07:05:31;;;;;;;9.33;7.83;;;19.60;58.20;;;;;;1829484;76;25977;-60
2024/05/02 07:07:59;;;;;;;11.17;9.50;;;19.70;59.10;;;;;;1818433;76;26573;-60
2024/05/02 07:10:27;;;;;;;9.87;8.87;;;19.70;58.90;;;;;;1823906;76;26631;-61
2024/05/02 07:12:54;;;;;;;12.00;9.40;;;19.80;59.10;;;;;;1836604;76;26062;-61
2024/05/02 07:15:22;;;;;;;10.73;9.73;;;19.60;59.20;;;;;;1830671;76;25956;-61
2024/05/02 07:17:49;;;;;;;13.30;11.23;;;19.40;60.30;;;;;;1833278;76;25893;-61
2024/05/02 07:20:17;;;;;;;11.77;10.53;;;19.20;60.60;;;;;;1824241;76;26476;-61
2024/05/02 07:22:44;;;;;;;10.63;9.53;;;19.00;62.40;;;;;;1824562;76;25935;-61
2024/05/02 07:25:12;;;;;;;9.50;8.60;;;19.00;63.80;;;;;;1821641;76;25954;-61
2024/05/02 07:27:39;;;;;;;11.70;10.30;;;19.10;63.60;;;;;;1830823;76;25906;-61
2024/05/02 07:30:08;;;;;;;11.03;9.93;;;19.40;62.40;;;;;;1832650;76;26465;-63
2024/05/02 07:32:35;;;;;;;10.53;9.63;;;19.60;62.20;;;;;;1825904;76;26088;-62
2024/05/02 07:35:03;;;;;;;10.60;8.67;;;19.60;61.20;;;;;;1825412;76;26555;-62
2024/05/02 07:37:30;;;;;;;10.90;9.80;;;19.60;61.50;;;;;;1830638;76;25986;-62
2024/05/02 07:39:58;;;;;;;10.67;9.20;;;19.90;61.30;;;;;;1833215;76;26592;-61
2024/05/02 07:42:25;;;;;;;10.53;9.53;;;20.10;59.60;;;;;;1833112;76;26008;-62
2024/05/02 07:44:54;;;;;;;12.10;9.80;;;20.40;60.40;;;;;;1829564;76;25991;-64
2024/05/02 07:47:22;;;;;;;11.60;9.20;;;20.80;58.90;;;;;;1829706;76;26498;-61
2024/05/02 07:49:49;;;;;;;10.10;9.20;;;21.10;59.20;;;;;;1838579;75;26581;-61
2024/05/02 07:52:17;;;;;;;10.50;9.40;;;21.20;57.70;;;;;;1829673;76;26060;-61
2024/05/02 07:54:44;;;;;;;11.20;10.03;;;21.40;57.60;;;;;;1827436;76;26076;-61
2024/05/02 07:57:12;;;;;;;11.03;8.30;;;21.30;57.40;;;;;;1828886;76;25952;-61
2024/05/02 07:59:40;;;;;;;9.23;8.33;;;21.20;57.40;;;;;;1831601;76;25921;-61
2024/05/02 08:02:10;;;;;;;10.67;8.70;;;21.40;55.20;;;;;;1832281;76;25985;-62
2024/05/02 08:04:37;;;;;;;11.80;10.70;;;21.60;55.70;;;;;;1816408;76;26577;-62
2024/05/02 08:07:05;;;;;;;10.10;8.53;;;21.70;55.80;;;;;;1828005;76;26015;-60
2024/05/02 08:09:32;;;;;;;11.70;8.30;;;21.80;54.70;;;;;;1823224;76;26033;-61
2024/05/02 08:12:00;;;;;;;9.37;8.37;;;21.90;54.30;;;;;;1830304;76;26401;-61
2024/05/02 08:14:27;;;;;;;10.60;7.90;;;21.90;54.10;;;;;;1832952;76;26057;-55
2024/05/02 08:29:18;;;;;;;8.47;6.63;;;22.70;49.50;;;;;;1953657;69;26594;-63
2024/05/02 08:31:45;;;;;;;29.83;7.30;;;22.90;49.20;;;;;;1878376;75;26460;-65
2024/05/02 08:34:13;;;;;;;7.87;5.60;;;23.20;52.30;;;;;;1868754;75;27888;-63
2024/05/02 08:36:41;;;;;;;6.50;5.90;;;23.60;49.60;;;;;;1848140;76;25937;-63
2024/05/02 08:39:07;;;;;;;;;;;23.30;50.40;;;;;;1843094;76;25924;-62
2024/05/02 08:41:35;;;;;;;9.80;6.70;;;23.20;50.60;;;;;;1803368;74;26176;-64
2024/05/02 08:44:03;;;;;;;8.43;6.77;;;23.00;50.40;;;;;;1861395;74;26783;-64
2024/05/02 08:46:31;;;;;;;12.37;7.27;;;23.00;49.90;;;;;;1859417;75;21913;-65
2024/05/02 08:49:03;;;;;;;8.53;5.93;;;23.00;50.80;;;;;;1855236;75;21857;-66
2024/05/02 08:51:32;;;;;;;6.50;5.90;;;23.10;50.70;;;;;;1863550;75;21944;-65
2024/05/02 08:54:00;;;;;;;7.27;6.60;;;23.20;50.20;;;;;;1859517;75;25974;-66
2024/05/02 08:56:37;;;;;;;;;;;23.30;49.80;;;;;;1865784;75;23342;-64
2024/05/02 08:59:05;;;;;;;;;;;23.30;48.60;;;;;;1861179;75;20246;-64
2024/05/02 09:01:33;;;;;;;;;;;23.40;48.70;;;;;;1863441;75;20476;-66
2024/05/02 09:04:00;;;;;;;;;;;23.50;49.70;;;;;;1866570;75;20464;-66
2024/05/02 09:06:27;;;;;;;;;;;23.60;49.30;;;;;;1851800;75;20140;-67
2024/05/02 09:08:54;;;;;;;;;;;23.70;48.40;;;;;;1842870;75;20648;-66
2024/05/02 09:11:24;;;;;;;;;;;23.70;49.20;;;;;;1851992;77;20216;-66
2024/05/02 09:13:50;;;;;;;;;;;23.60;47.80;;;;;;1869313;75;20224;-67
2024/05/02 09:16:17;;;;;;;;;;;23.50;48.30;;;;;;1862632;75;20472;-64
2024/05/02 09:18:44;;;;;;;;;;;23.40;46.80;;;;;;1854851;75;20203;-66
2024/05/02 09:21:11;;;;;;;;;;;23.40;47.00;;;;;;1841262;75;20419;-66
2024/05/02 09:23:38;;;;;;;;;;;23.40;47.30;;;;;;1853137;75;21630;-66
2024/05/02 09:26:06;;;;;;;;;;;23.60;47.70;;;;;;1852940;76;20636;-67
2024/05/02 09:28:33;;;;;;;;;;;23.90;46.00;;;;;;1863127;75;20161;-66
2024/05/02 09:31:00;;;;;;;6.30;5.70;;;24.00;45.40;;;;;;1850139;76;20251;-67
2024/05/02 09:33:27;;;;;;;;;;;24.00;44.80;;;;;;1871331;75;26498;-66
2024/05/02 09:36:14;;;;;;;8.90;6.70;;;24.00;44.50;;;;;;1856436;76;33435;-67
2024/05/02 09:38:45;;;;;;;8.50;6.00;;;23.90;44.80;;;;;;1795414;78;23965;-65
2024/05/02 09:41:15;;;;;;;8.90;6.50;;;23.90;46.20;;;;;;1807228;78;25970;-68
2024/05/02 09:43:45;;;;;;;12.47;6.90;;;23.90;46.50;;;;;;1795375;78;25992;-67
2024/05/02 09:46:15;;;;;;;8.80;7.27;;;24.00;46.10;;;;;;1804702;78;26045;-67
2024/05/02 09:48:47;;;;;;;6.10;5.40;;;24.10;45.50;;;;;;1806568;78;26547;-67
2024/05/02 09:51:20;;;;;;;8.90;6.97;;;24.10;44.70;;;;;;1808677;78;26459;-67
2024/05/02 09:53:50;;;;;;;7.60;6.70;;;24.20;45.00;;;;;;1765301;79;26009;-67
2024/05/02 09:56:18;;;;;;;8.23;6.83;;;24.20;45.20;;;;;;1807775;78;26000;-67
2024/05/02 09:58:47;;;;;;;7.33;6.57;;;24.20;44.80;;;;;;1807244;78;26020;-67
2024/05/02 10:01:20;;;;;;;13.33;6.87;;;24.10;45.00;;;;;;1807749;78;25975;-66
2024/05/02 10:03:48;;;;;;;6.63;6.03;;;24.00;44.90;;;;;;1808039;78;26556;-66
2024/05/02 10:06:16;;;;;;;7.97;6.50;;;23.90;45.20;;;;;;1808037;78;25960;-67
2024/05/02 10:08:44;;;;;;;8.40;7.10;;;23.90;45.50;;;;;;1803666;78;26106;-65
2024/05/02 10:11:16;;;;;;;7.50;6.43;;;23.90;44.90;;;;;;1796469;78;25959;-67
2024/05/02 10:13:53;;;;;;;11.70;6.60;;;24.00;45.20;;;;;;1807734;78;26097;-67
2024/05/02 10:16:26;;;;;;;11.33;7.10;;;24.00;45.00;;;;;;1808930;78;26046;-67
2024/05/02 10:19:03;;;;;;;6.50;5.83;;;24.00;44.40;;;;;;1797830;78;26472;-67
2024/05/02 10:21:31;;;;;;;7.77;6.93;;;24.00;44.80;;;;;;1806696;78;26610;-66
2024/05/02 10:23:58;;;;;;;7.03;6.33;;;23.90;44.90;;;;;;1813680;78;26538;-67
2024/05/02 10:26:30;;;;;;;8.87;6.50;;;24.00;45.30;;;;;;1798487;78;25955;-65
2024/05/02 10:29:02;;;;;;;8.73;7.70;;;24.10;45.70;;;;;;1808020;78;26576;-66
2024/05/02 10:31:31;;;;;;;10.60;7.40;;;24.10;45.70;;;;;;1808221;78;25921;-67
2024/05/02 10:34:01;;;;;;;8.03;7.07;;;24.10;44.70;;;;;;1801300;78;26179;-67
2024/05/02 10:36:30;;;;;;;7.57;6.90;;;24.00;44.90;;;;;;1804939;78;25966;-66
2024/05/02 10:38:58;;;;;;;9.07;6.43;;;24.00;45.60;;;;;;1806924;78;25960;-67
2024/05/02 10:41:27;;;;;;;8.23;7.43;;;24.00;45.90;;;;;;1808002;78;25968;-66
2024/05/02 10:43:55;;;;;;;9.23;7.53;;;24.00;45.30;;;;;;1799048;78;26021;-67
2024/05/02 10:46:23;;;;;;;8.93;6.67;;;24.00;45.60;;;;;;1801033;78;25980;-67
2024/05/02 10:48:50;;;;;;;8.73;6.53;;;24.10;45.40;;;;;;1809906;78;26042;-65
2024/05/02 10:51:18;;;;;;;10.10;6.77;;;24.10;45.30;;;;;;1814193;77;25991;-63
2024/05/02 10:53:45;;;;;;;10.53;7.10;;;24.20;45.00;;;;;;1806451;78;26516;-65
2024/05/02 10:56:13;;;;;;;10.77;7.00;;;24.20;44.50;;;;;;1808837;78;25996;-64
2024/05/02 10:58:41;;;;;;;9.27;6.33;;;24.20;44.80;;;;;;1775432;79;26005;-65
2024/05/02 11:01:08;;;;;;;9.20;7.60;;;24.10;44.00;;;;;;1808090;78;26112;-66
2024/05/02 11:03:36;;;;;;;9.07;6.63;;;24.20;44.70;;;;;;1800942;78;25986;-64
2024/05/02 11:06:03;;;;;;;10.07;6.97;;;24.20;44.70;;;;;;1806360;78;26043;-64
2024/05/02 11:08:31;;;;;;;8.00;6.80;;;24.30;44.50;;;;;;1808041;78;25984;-63
2024/05/02 11:11:00;;;;;;;8.10;6.97;;;24.30;44.30;;;;;;1808210;78;26617;-65
2024/05/02 11:13:29;;;;;;;7.27;6.50;;;24.40;45.10;;;;;;1807677;78;26014;-64
2024/05/02 11:16:01;;;;;;;11.00;7.50;;;24.40;45.10;;;;;;1798510;78;25916;-64
2024/05/02 11:18:27;;;;;;;10.07;6.93;;;24.60;45.50;;;;;;1787883;76;25133;-64
2024/05/02 11:21:31;;;;;;;9.90;7.30;;;24.70;44.10;;;;;;1789481;79;26429;-65
2024/05/02 11:24:03;;;;;;;7.73;6.80;;;24.70;44.00;;;;;;1808447;77;26011;-65
2024/05/02 11:26:31;;;;;;;7.43;6.73;;;24.80;44.10;;;;;;1818200;77;25972;-64
2024/05/02 11:28:59;;;;;;;9.60;7.30;;;24.80;43.70;;;;;;1816549;77;26420;-65
2024/05/02 11:31:27;;;;;;;11.53;7.20;;;24.90;43.60;;;;;;1827784;77;25958;-64
2024/05/02 11:33:56;;;;;;;8.67;7.30;;;25.00;45.10;;;;;;1822275;77;26529;-64
2024/05/02 11:36:26;;;;;;;8.10;6.47;;;25.10;43.70;;;;;;1822318;77;26004;-64
2024/05/02 11:38:54;;;;;;;9.30;7.23;;;25.20;43.50;;;;;;1828940;77;26004;-63
2024/05/02 11:41:22;;;;;;;8.60;6.90;;;25.40;43.50;;;;;;1826120;77;25998;-64
2024/05/02 11:43:51;;;;;;;7.63;6.67;;;25.50;42.50;;;;;;1828445;77;26076;-64
2024/05/02 11:46:18;;;;;;;7.27;6.67;;;25.70;41.80;;;;;;1829132;77;26050;-64
2024/05/02 11:48:46;;;;;;;7.30;6.33;;;25.90;41.90;;;;;;1833435;77;26041;-63
2024/05/02 11:51:13;;;;;;;7.67;6.93;;;26.10;41.30;;;;;;1831653;77;26527;-63
2024/05/02 11:53:41;;;;;;;9.50;6.80;;;26.30;40.00;;;;;;1819619;77;25985;-64
2024/05/02 11:56:08;;;;;;;11.70;8.43;;;26.30;40.20;;;;;;1833126;77;23999;-64
2024/05/02 11:58:36;;;;;;;7.93;6.70;;;26.30;40.00;;;;;;1832126;77;26346;-64
2024/05/02 12:01:03;;;;;;;9.80;6.73;;;26.20;40.00;;;;;;1827270;77;26423;-63
2024/05/02 12:03:31;;;;;;;7.20;6.50;;;26.10;39.80;;;;;;1819646;77;25998;-60
2024/05/02 12:05:58;;;;;;;8.43;6.73;;;26.00;40.20;;;;;;1830693;77;25964;-63
2024/05/02 12:08:26;;;;;;;6.87;6.17;;;26.00;40.40;;;;;;1836369;77;26057;-62
2024/05/02 12:10:53;;;;;;;6.77;6.17;;;26.20;39.60;;;;;;1832764;77;26502;-63
2024/05/02 12:13:21;;;;;;;7.00;6.40;;;26.40;40.10;;;;;;1832270;77;26086;-64
2024/05/02 12:15:48;;;;;;;13.13;6.37;;;26.60;39.20;;;;;;1836149;77;25942;-63
2024/05/02 12:18:16;;;;;;;9.43;7.30;;;26.70;39.10;;;;;;1833834;77;26531;-63
2024/05/02 12:20:43;;;;;;;9.07;7.13;;;26.60;38.20;;;;;;1837032;77;26034;-63
2024/05/02 12:23:11;;;;;;;7.97;6.80;;;26.50;38.30;;;;;;1835980;76;26730;-63
2024/05/02 12:25:38;;;;;;;6.83;6.17;;;26.40;38.20;;;;;;1823904;77;25973;-63
2024/05/02 12:28:06;;;;;;;10.53;6.63;;;26.50;39.20;;;;;;1831676;77;25958;-63
2024/05/02 12:30:34;;;;;;;8.37;7.00;;;26.40;38.50;;;;;;1835198;77;26304;-63
2024/05/02 12:33:01;;;;;;;8.07;7.37;;;26.40;39.00;;;;;;1827017;77;25968;-63
2024/05/02 12:35:29;;;;;;;7.90;6.90;;;26.30;38.50;;;;;;1824442;77;25967;-63
2024/05/02 12:37:57;;;;;;;8.77;7.97;;;26.30;38.50;;;;;;1815755;77;25967;-63
2024/05/02 12:40:24;;;;;;;7.33;6.67;;;26.30;38.20;;;;;;1818013;77;25959;-62
2024/05/02 12:42:52;;;;;;;8.30;5.97;;;26.30;38.30;;;;;;1832552;77;25987;-62
2024/05/02 12:45:19;;;;;;;7.70;7.00;;;26.20;37.90;;;;;;1821435;77;26525;-62
2024/05/02 12:47:47;;;;;;;7.47;6.87;;;26.10;38.00;;;;;;1816357;77;26085;-63
2024/05/02 12:50:14;;;;;;;7.70;7.00;;;26.20;38.70;;;;;;1819296;77;25929;-63
2024/05/02 12:52:42;;;;;;;7.27;6.67;;;26.20;39.30;;;;;;1830489;77;26000;-62
2024/05/02 12:55:10;;;;;;;11.20;6.50;;;26.10;39.00;;;;;;1824247;77;26514;-63
2024/05/02 12:57:41;;;;;;;9.07;6.27;;;26.10;38.60;;;;;;1830312;77;26511;-62
2024/05/02 13:00:07;;;;;;;;;;;26.00;38.30;;;;;;1825500;77;25944;-62
2024/05/02 13:02:34;;;;;;;;;;;25.90;38.70;;;;;;1836547;77;20580;-63